Time;durP1;ratioP1;P1;durP2;ratioP2;P2;SDS_P1;SDS_P2;PMS_P1;PMS_P2;Temp;Humidity;BMP_temperature;BMP_pressure;BME280_temperature;BME280_humidity;BME280_pressure;Samples;Min_cycle;Max_cycle;Signal;HPM_P1;HPM_P2
2021/03/23 00:00:53;;;;;;;7.22;6.50;;;8.30;59.20;;;;;;5010441;28;20034;-83
2021/03/23 00:03:25;;;;;;;8.15;7.15;;;8.20;59.10;;;;;;5008198;28;20045;-83
2021/03/23 00:05:52;;;;;;;9.25;7.82;;;8.20;59.10;;;;;;5008386;28;20049;-82
2021/03/23 00:08:47;;;;;;;8.73;6.45;;;8.20;59.20;;;;;;4992410;28;20030;-82
2021/03/23 00:11:35;;;;;;;7.25;6.53;;;8.10;59.10;;;;;;4990060;28;20038;-81
2021/03/23 00:14:04;;;;;;;7.47;6.65;;;8.10;59.10;;;;;;5008685;28;20366;-83
2021/03/23 00:16:36;;;;;;;9.38;6.38;;;8.10;59.20;;;;;;5004147;28;20040;-83
2021/03/23 00:19:04;;;;;;;9.07;7.35;;;8.10;59.20;;;;;;5016123;28;20030;-85
2021/03/23 00:21:30;;;;;;;9.40;7.13;;;8.00;59.10;;;;;;5018070;28;20038;-86
2021/03/23 00:23:57;;;;;;;7.88;6.82;;;8.00;59.10;;;;;;5016527;28;20118;-82
2021/03/23 00:26:24;;;;;;;9.93;6.78;;;8.00;59.20;;;;;;5014942;28;20409;-84
2021/03/23 00:28:53;;;;;;;10.57;7.10;;;8.00;59.20;;;;;;5008601;28;20433;-83
2021/03/23 00:31:25;;;;;;;8.52;6.35;;;8.00;59.30;;;;;;4995800;28;20040;-82
2021/03/23 00:33:51;;;;;;;8.25;7.22;;;7.90;59.20;;;;;;5008156;28;20112;-83
2021/03/23 00:36:23;;;;;;;8.00;7.00;;;7.90;59.20;;;;;;4992306;28;20030;-83
2021/03/23 00:38:51;;;;;;;7.82;7.03;;;7.90;59.30;;;;;;5007949;28;20412;-83
2021/03/23 00:41:17;;;;;;;8.52;6.07;;;7.90;59.30;;;;;;5009546;28;20038;-85
2021/03/23 00:43:43;;;;;;;9.05;6.90;;;7.80;59.10;;;;;;4991874;28;20104;-85
2021/03/23 00:46:09;;;;;;;8.43;7.13;;;7.80;59.20;;;;;;5009050;28;20077;-83
2021/03/23 00:48:35;;;;;;;7.65;6.40;;;7.80;59.20;;;;;;5008311;28;20057;-85
2021/03/23 00:51:01;;;;;;;7.07;6.25;;;7.80;59.30;;;;;;5008054;28;20030;-83
2021/03/23 00:53:28;;;;;;;7.28;6.50;;;7.70;59.10;;;;;;5008044;28;20029;-83
2021/03/23 00:55:54;;;;;;;8.27;7.47;;;7.80;59.40;;;;;;4975741;28;20108;-82
2021/03/23 00:58:20;;;;;;;8.23;6.22;;;7.70;59.20;;;;;;5009299;28;20041;-81
2021/03/23 01:00:46;;;;;;;8.40;6.68;;;7.70;59.30;;;;;;5008925;28;20034;-83
2021/03/23 01:03:12;;;;;;;10.73;7.25;;;7.70;59.30;;;;;;5009460;28;20504;-81
2021/03/23 01:05:38;;;;;;;8.27;6.07;;;7.60;59.20;;;;;;5007965;28;20063;-85
2021/03/23 01:08:06;;;;;;;6.72;6.05;;;7.60;59.20;;;;;;5008813;28;20452;-82
2021/03/23 01:10:33;;;;;;;7.55;6.72;;;7.60;59.30;;;;;;5006967;28;20036;-81
2021/03/23 01:13:00;;;;;;;8.40;6.72;;;7.60;59.30;;;;;;5007012;28;20440;-82
2021/03/23 01:15:30;;;;;;;9.35;6.82;;;7.60;59.30;;;;;;5008688;28;20099;-81
2021/03/23 01:17:56;;;;;;;12.52;6.47;;;7.50;59.20;;;;;;5009124;28;20038;-83
2021/03/23 01:20:24;;;;;;;7.05;6.13;;;7.50;59.20;;;;;;5009242;28;20036;-82
2021/03/23 01:22:50;;;;;;;8.82;6.47;;;7.50;59.20;;;;;;5008207;28;20567;-81
2021/03/23 01:25:17;;;;;;;7.88;6.88;;;7.50;59.30;;;;;;5007227;28;20034;-80
2021/03/23 01:27:43;;;;;;;7.07;6.20;;;7.40;59.10;;;;;;5008544;28;20121;-83
2021/03/23 01:30:10;;;;;;;7.20;6.35;;;7.40;59.20;;;;;;5008110;28;20122;-82
2021/03/23 01:32:37;;;;;;;8.52;5.90;;;7.40;59.20;;;;;;5008906;28;20038;-84
2021/03/23 01:35:05;;;;;;;7.18;6.47;;;7.40;59.30;;;;;;5007717;28;20034;-86
2021/03/23 01:37:31;;;;;;;9.00;7.40;;;7.30;59.20;;;;;;5008279;28;20030;-85
2021/03/23 01:39:57;;;;;;;6.25;5.65;;;7.30;59.20;;;;;;5006654;28;20033;-83
2021/03/23 01:42:22;;;;;;;6.82;6.20;;;7.30;59.90;;;;;;5006416;28;20034;-85
2021/03/23 01:45:14;;;;;;;7.07;6.22;;;7.30;59.40;;;;;;5007067;28;20029;-85
2021/03/23 01:47:40;;;;;;;6.82;6.15;;;7.30;59.50;;;;;;5006492;28;20057;-81
2021/03/23 01:50:07;;;;;;;6.97;6.15;;;7.30;59.50;;;;;;5006770;28;20105;-81
2021/03/23 01:52:34;;;;;;;7.07;6.38;;;7.30;59.50;;;;;;5007947;28;20030;-82
2021/03/23 01:55:05;;;;;;;6.13;5.55;;;7.30;59.60;;;;;;5007572;28;20117;-83
2021/03/23 01:57:34;;;;;;;7.68;6.20;;;7.30;59.70;;;;;;5007101;28;20378;-82
2021/03/23 02:00:00;;;;;;;7.78;6.55;;;7.30;59.70;;;;;;5007013;28;20379;-82
2021/03/23 02:02:28;;;;;;;7.50;6.45;;;7.30;59.70;;;;;;5006681;28;20060;-82
2021/03/23 02:04:55;;;;;;;7.05;6.22;;;7.30;59.70;;;;;;5006146;28;20029;-82
2021/03/23 02:07:21;;;;;;;7.53;6.82;;;7.30;59.70;;;;;;5007266;28;20049;-82
2021/03/23 02:09:50;;;;;;;7.63;5.93;;;7.30;59.70;;;;;;5006627;28;20036;-82
2021/03/23 02:12:21;;;;;;;6.80;6.07;;;7.40;60.00;;;;;;4989629;28;20041;-82
2021/03/23 02:14:48;;;;;;;7.88;6.32;;;7.40;59.90;;;;;;5006812;28;20079;-82
2021/03/23 02:17:32;;;;;;;7.07;6.38;;;7.40;59.90;;;;;;5006714;28;20401;-83
2021/03/23 02:20:28;;;;;;;6.57;5.90;;;7.40;59.90;;;;;;5007836;28;20236;-83
2021/03/23 02:23:07;;;;;;;7.32;5.57;;;7.40;59.90;;;;;;4994159;28;20521;-83
2021/03/23 02:25:33;;;;;;;8.80;6.65;;;7.40;59.90;;;;;;4990270;28;20033;-82
2021/03/23 02:27:59;;;;;;;7.80;6.00;;;7.50;60.00;;;;;;5007034;28;20073;-82
2021/03/23 02:30:33;;;;;;;6.97;6.30;;;7.50;60.00;;;;;;5005378;28;20120;-83
2021/03/23 02:32:59;;;;;;;8.18;6.20;;;7.50;60.10;;;;;;5008652;28;20034;-83
2021/03/23 02:35:25;;;;;;;6.47;5.88;;;7.50;60.00;;;;;;4990654;28;20037;-82
2021/03/23 02:37:51;;;;;;;6.95;6.35;;;7.50;60.00;;;;;;5007589;28;20113;-82
2021/03/23 02:40:17;;;;;;;7.45;6.40;;;7.60;60.10;;;;;;5006618;28;20040;-82
2021/03/23 02:42:43;;;;;;;8.07;5.82;;;7.50;60.00;;;;;;5006759;28;20034;-82
2021/03/23 02:45:10;;;;;;;6.70;6.10;;;7.60;60.20;;;;;;4990459;28;20092;-83
2021/03/23 02:47:36;;;;;;;6.38;5.78;;;7.60;60.20;;;;;;5010368;28;20063;-86
2021/03/23 02:50:03;;;;;;;6.50;5.90;;;7.60;60.20;;;;;;5010426;28;20121;-83
2021/03/23 02:52:29;;;;;;;7.10;6.40;;;7.60;60.20;;;;;;5010506;28;20287;-86
2021/03/23 02:54:55;;;;;;;9.30;6.78;;;7.60;60.20;;;;;;4993981;28;20116;-84
2021/03/23 02:57:21;;;;;;;6.57;5.78;;;7.70;60.30;;;;;;5010559;28;20136;-85
2021/03/23 02:59:46;;;;;;;6.75;6.05;;;7.70;60.40;;;;;;5010251;28;20479;-86
2021/03/23 03:02:12;;;;;;;7.22;6.35;;;7.70;60.30;;;;;;5010605;28;20030;-86
2021/03/23 03:04:39;;;;;;;9.52;5.72;;;7.70;60.30;;;;;;5010319;28;20022;-86
2021/03/23 03:07:05;;;;;;;9.15;6.57;;;7.70;60.30;;;;;;5010270;28;20041;-86
2021/03/23 03:09:31;;;;;;;6.53;5.95;;;7.70;60.30;;;;;;4994076;28;20030;-85
2021/03/23 03:11:57;;;;;;;7.18;6.05;;;7.70;60.30;;;;;;5010195;28;20037;-86
2021/03/23 03:14:23;;;;;;;8.90;6.40;;;7.70;60.30;;;;;;5010256;28;20033;-87
2021/03/23 03:16:49;;;;;;;6.88;6.18;;;7.80;60.50;;;;;;5011359;28;20584;-86
2021/03/23 03:19:16;;;;;;;6.38;5.78;;;7.70;60.30;;;;;;5010177;28;20080;-86
2021/03/23 03:21:43;;;;;;;6.47;5.88;;;7.80;60.50;;;;;;5010573;28;20026;-87
2021/03/23 03:24:09;;;;;;;6.95;6.25;;;7.70;60.30;;;;;;5010345;28;20462;-85
2021/03/23 03:26:35;;;;;;;8.27;5.97;;;7.80;60.50;;;;;;5011496;28;20049;-84
2021/03/23 03:29:01;;;;;;;6.53;5.93;;;7.80;60.50;;;;;;5010588;28;20037;-88
2021/03/23 03:31:29;;;;;;;6.68;6.07;;;7.80;60.50;;;;;;5010554;28;20572;-86
2021/03/23 03:33:57;;;;;;;7.07;6.38;;;7.80;60.50;;;;;;4996454;28;20257;-84
2021/03/23 03:36:25;;;;;;;5.60;5.10;;;7.80;60.50;;;;;;5014066;28;20381;-84
2021/03/23 03:38:51;;;;;;;6.88;6.05;;;7.90;60.70;;;;;;5014953;28;20030;-85
2021/03/23 03:41:18;;;;;;;6.15;5.55;;;7.90;60.60;;;;;;5013566;28;20057;-87
2021/03/23 03:43:44;;;;;;;6.75;5.75;;;7.90;60.60;;;;;;5015005;28;20041;-83
2021/03/23 03:46:11;;;;;;;6.75;6.05;;;7.90;60.60;;;;;;5013336;28;20095;-84
2021/03/23 03:48:37;;;;;;;6.90;6.13;;;7.90;60.60;;;;;;5013663;28;20034;-84
2021/03/23 03:51:04;;;;;;;6.93;6.22;;;7.90;60.60;;;;;;5015046;28;20034;-83
2021/03/23 03:53:30;;;;;;;6.13;5.63;;;7.90;60.60;;;;;;5014931;28;20037;-85
2021/03/23 03:55:56;;;;;;;8.23;6.18;;;7.90;60.60;;;;;;5013490;28;20120;-87
2021/03/23 03:58:22;;;;;;;7.88;6.05;;;7.90;60.60;;;;;;5014661;28;20037;-83
2021/03/23 04:00:48;;;;;;;6.57;6.00;;;7.90;60.60;;;;;;5013784;28;20161;-85
2021/03/23 04:03:16;;;;;;;6.45;5.85;;;8.00;60.80;;;;;;5013590;28;20022;-84
2021/03/23 04:05:44;;;;;;;9.02;6.43;;;7.90;60.60;;;;;;5014799;28;20421;-83
2021/03/23 04:08:13;;;;;;;7.68;5.45;;;7.90;60.60;;;;;;5014353;28;20037;-82
2021/03/23 04:10:40;;;;;;;6.10;5.50;;;7.90;60.60;;;;;;5013072;28;20081;-83
2021/03/23 04:13:07;;;;;;;9.80;6.00;;;7.90;60.60;;;;;;5013387;28;20034;-83
2021/03/23 04:15:42;;;;;;;6.65;5.95;;;8.00;60.70;;;;;;5013022;28;20034;-83
2021/03/23 04:18:10;;;;;;;6.40;5.80;;;8.00;60.80;;;;;;5014280;28;20034;-86
2021/03/23 04:20:36;;;;;;;6.68;6.00;;;8.00;60.70;;;;;;5014200;28;20037;-84
2021/03/23 04:23:03;;;;;;;7.00;6.38;;;8.00;60.70;;;;;;5014035;28;20026;-85
2021/03/23 04:25:32;;;;;;;7.05;6.45;;;8.00;60.70;;;;;;5012809;28;20478;-83
2021/03/23 04:27:58;;;;;;;7.07;5.95;;;8.00;60.70;;;;;;5014129;28;20620;-82
2021/03/23 04:30:25;;;;;;;7.88;6.55;;;8.00;60.70;;;;;;5013066;28;20117;-85
2021/03/23 04:32:54;;;;;;;8.77;6.00;;;8.00;60.70;;;;;;5014167;28;20062;-84
2021/03/23 04:35:39;;;;;;;7.70;6.05;;;8.00;60.70;;;;;;5013190;28;20036;-84
2021/03/23 04:38:05;;;;;;;6.38;5.82;;;8.00;60.70;;;;;;5013934;28;20515;-86
2021/03/23 04:40:31;;;;;;;6.25;5.32;;;8.00;60.70;;;;;;5014347;28;20061;-88
2021/03/23 04:42:57;;;;;;;6.78;5.63;;;8.10;60.80;;;;;;5013297;28;20083;-85
2021/03/23 04:45:23;;;;;;;6.25;5.65;;;8.10;60.80;;;;;;5011211;28;20038;-87
2021/03/23 04:47:49;;;;;;;6.82;5.70;;;8.10;60.80;;;;;;5013540;28;20061;-83
2021/03/23 04:50:17;;;;;;;7.20;5.90;;;8.10;60.80;;;;;;5012234;28;20032;-83
2021/03/23 04:52:43;;;;;;;5.85;5.28;;;8.10;60.80;;;;;;5012510;28;20041;-84
2021/03/23 04:55:10;;;;;;;7.93;7.10;;;8.10;60.80;;;;;;5011911;28;20030;-83
2021/03/23 04:57:36;;;;;;;7.63;5.78;;;8.10;60.80;;;;;;5013339;28;20595;-82
2021/03/23 05:00:05;;;;;;;5.93;5.38;;;8.10;60.80;;;;;;5012130;28;20106;-81
2021/03/23 05:02:31;;;;;;;6.95;6.35;;;8.10;60.80;;;;;;5012953;28;20037;-81
2021/03/23 05:04:57;;;;;;;6.35;5.75;;;8.10;60.80;;;;;;4995514;28;20092;-82
2021/03/23 05:07:24;;;;;;;6.07;5.57;;;8.10;60.80;;;;;;5012229;28;20034;-82
2021/03/23 05:09:51;;;;;;;7.40;6.10;;;8.10;60.80;;;;;;5011783;28;20045;-82
2021/03/23 05:12:17;;;;;;;6.90;6.00;;;8.10;60.90;;;;;;5012135;28;20037;-81
2021/03/23 05:14:43;;;;;;;7.50;5.47;;;8.10;60.90;;;;;;5011632;28;20034;-82
2021/03/23 05:17:10;;;;;;;9.48;5.85;;;8.10;60.90;;;;;;5011736;28;20092;-83
2021/03/23 05:19:36;;;;;;;6.40;5.80;;;8.10;60.90;;;;;;5011806;28;20022;-82
2021/03/23 05:22:02;;;;;;;6.35;5.75;;;8.20;61.10;;;;;;4995640;28;20061;-82
2021/03/23 05:24:28;;;;;;;6.70;5.88;;;8.10;60.90;;;;;;5011797;28;20137;-83
2021/03/23 05:26:54;;;;;;;6.97;5.72;;;8.10;60.90;;;;;;4995059;28;20582;-82
2021/03/23 05:29:20;;;;;;;7.30;5.80;;;8.10;60.90;;;;;;5012846;28;20097;-82
2021/03/23 05:31:47;;;;;;;6.95;6.22;;;8.10;60.90;;;;;;5012595;28;20030;-83
2021/03/23 05:34:13;;;;;;;5.63;5.13;;;8.10;60.90;;;;;;5011411;28;20592;-83
2021/03/23 05:36:41;;;;;;;6.57;5.95;;;8.20;61.10;;;;;;5012785;28;20112;-82
2021/03/23 05:39:08;;;;;;;6.50;5.90;;;8.10;60.90;;;;;;5011452;28;20037;-85
2021/03/23 05:42:04;;;;;;;6.68;5.50;;;8.10;60.90;;;;;;5012357;28;20064;-82
2021/03/23 05:44:42;;;;;;;6.40;5.80;;;8.10;60.90;;;;;;5012137;28;20032;-83
2021/03/23 05:47:17;;;;;;;6.15;5.65;;;8.10;60.90;;;;;;4992123;28;20057;-85
2021/03/23 05:49:55;;;;;;;5.97;5.43;;;8.10;60.90;;;;;;4972106;28;20029;-83
2021/03/23 05:52:42;;;;;;;6.15;5.55;;;8.10;60.90;;;;;;4988976;28;20344;-85
2021/03/23 05:55:24;;;;;;;7.03;5.40;;;8.10;60.90;;;;;;4988420;28;20517;-86
2021/03/23 05:57:58;;;;;;;5.90;5.38;;;8.10;60.90;;;;;;4977456;28;20080;-85
2021/03/23 06:00:37;;;;;;;5.70;5.20;;;8.10;60.90;;;;;;4992028;28;20084;-84
2021/03/23 06:03:33;;;;;;;5.85;5.28;;;8.10;60.90;;;;;;5006837;28;20035;-85
2021/03/23 06:06:11;;;;;;;6.10;5.50;;;8.10;60.90;;;;;;5006981;28;20532;-86
2021/03/23 06:08:37;;;;;;;5.70;5.20;;;8.10;60.90;;;;;;4990330;28;20030;-88
2021/03/23 06:11:09;;;;;;;6.25;5.65;;;8.10;60.90;;;;;;5006366;28;20032;-83
2021/03/23 06:13:56;;;;;;;6.13;5.53;;;8.20;61.10;;;;;;5007160;28;20041;-91
2021/03/23 06:16:40;;;;;;;6.03;5.40;;;8.20;61.10;;;;;;4999139;28;20169;-82
2021/03/23 06:19:24;;;;;;;;;;;8.20;61.10;;;;;;4984583;28;20097;-84
2021/03/23 06:21:57;;;;;;;6.25;5.65;;;8.20;61.00;;;;;;5016289;28;19913;-86
2021/03/23 06:24:29;;;;;;;7.32;5.43;;;8.20;60.90;;;;;;5013345;28;20071;-90
2021/03/23 06:27:15;;;;;;;6.05;5.45;;;8.20;60.90;;;;;;4996109;28;20034;-88
2021/03/23 06:30:02;;;;;;;7.18;5.13;;;8.20;60.90;;;;;;4994131;28;20382;-90
2021/03/23 06:32:52;;;;;;;6.05;5.45;;;8.20;61.00;;;;;;4994521;28;20056;-87
2021/03/23 06:35:27;;;;;;;5.45;4.97;;;8.20;61.00;;;;;;5014378;28;20030;-82
2021/03/23 06:37:55;;;;;;;5.80;5.30;;;8.20;61.00;;;;;;5010260;28;20054;-87
2021/03/23 06:54:20;;;;;;;5.50;5.00;;;8.30;61.00;;;;;;4957874;28;20437;-87
2021/03/23 06:57:04;;;;;;;6.88;4.88;;;8.30;60.90;;;;;;4959988;28;20031;-88
2021/03/23 06:59:44;;;;;;;6.35;5.25;;;8.30;61.00;;;;;;4937944;29;20511;-90
2021/03/23 07:02:27;;;;;;;6.13;5.25;;;8.30;61.00;;;;;;4933959;29;20107;-88
2021/03/23 07:04:53;;;;;;;5.47;4.75;;;8.40;61.20;;;;;;4933364;28;20039;-91
2021/03/23 07:07:21;;;;;;;5.45;4.95;;;8.40;61.20;;;;;;4938290;28;20106;-80
2021/03/23 07:09:53;;;;;;;6.60;5.57;;;8.40;61.20;;;;;;4918527;29;20040;-88
2021/03/23 07:12:36;;;;;;;6.72;5.20;;;8.50;61.40;;;;;;4942565;29;20035;-93
2021/03/23 07:15:12;;;;;;;6.70;5.78;;;8.50;61.40;;;;;;4962928;28;20069;-85
2021/03/23 07:17:45;;;;;;;8.18;5.57;;;8.50;61.40;;;;;;4972262;28;20490;-86
2021/03/23 07:20:36;;;;;;;6.47;5.32;;;8.50;61.30;;;;;;4959758;28;20031;-88
2021/03/23 07:23:19;;;;;;;5.60;5.10;;;8.50;61.30;;;;;;4972803;28;20043;-86
2021/03/23 07:25:45;;;;;;;8.65;5.40;;;8.60;61.40;;;;;;4976590;28;20043;-89
2021/03/23 07:28:17;;;;;;;5.43;4.95;;;8.70;61.50;;;;;;4971348;28;20034;-84
2021/03/23 07:30:48;;;;;;;5.55;5.03;;;8.70;61.50;;;;;;4972410;28;20041;-86
2021/03/23 07:33:47;;;;;;;5.28;4.78;;;8.70;61.50;;;;;;4972426;28;20327;-87
2021/03/23 07:36:19;;;;;;;5.90;5.30;;;8.80;61.70;;;;;;4970553;28;20038;-87
2021/03/23 07:39:05;;;;;;;7.05;5.20;;;8.80;61.60;;;;;;4971358;28;20038;-83
2021/03/23 07:41:55;;;;;;;6.00;5.15;;;8.80;61.60;;;;;;4955640;28;20085;-87
2021/03/23 07:44:57;;;;;;;5.85;4.30;;;8.90;61.80;;;;;;4972363;28;20019;-84
2021/03/23 07:47:34;;;;;;;5.53;5.03;;;8.90;61.70;;;;;;4971439;28;20035;-85
2021/03/23 07:50:04;;;;;;;5.78;5.13;;;9.00;61.90;;;;;;4998706;28;20072;-86
2021/03/23 07:52:37;;;;;;;5.47;4.97;;;9.00;61.80;;;;;;5020443;28;20298;-85
2021/03/23 07:55:13;;;;;;;6.07;5.13;;;9.10;62.00;;;;;;5020219;28;20121;-89
2021/03/23 07:57:51;;;;;;;5.88;5.38;;;9.10;61.90;;;;;;5010533;28;20034;-84
2021/03/23 08:00:25;;;;;;;6.63;5.28;;;9.20;62.10;;;;;;5010920;28;20069;-85
2021/03/23 08:02:54;;;;;;;5.82;5.32;;;9.20;62.00;;;;;;5022836;28;20103;-88
2021/03/23 08:05:50;;;;;;;6.88;4.88;;;9.30;62.10;;;;;;5030678;28;20509;-84
2021/03/23 08:08:17;;;;;;;7.93;5.45;;;9.30;62.10;;;;;;5025601;28;20046;-82
2021/03/23 08:11:03;;;;;;;6.20;5.40;;;9.40;62.20;;;;;;5028674;28;20034;-83
2021/03/23 08:13:29;;;;;;;6.55;5.47;;;9.40;62.10;;;;;;5026531;28;20034;-84
2021/03/23 08:16:17;;;;;;;6.13;5.25;;;9.40;62.00;;;;;;5027347;28;20476;-85
2021/03/23 08:19:17;;;;;;;6.15;5.55;;;9.50;62.10;;;;;;5026120;28;20513;-87
2021/03/23 08:22:07;;;;;;;6.55;5.78;;;9.50;62.10;;;;;;5006926;28;20473;-85
2021/03/23 08:25:02;;;;;;;6.55;5.95;;;9.60;62.10;;;;;;5005346;28;20497;-86
2021/03/23 08:27:46;;;;;;;6.07;5.50;;;9.60;62.10;;;;;;4992336;28;20057;-86
2021/03/23 08:30:32;;;;;;;;;;;9.60;62.00;;;;;;5017168;28;20026;-86
2021/03/23 08:33:18;;;;;;;6.22;5.63;;;9.70;62.10;;;;;;5011344;28;19913;-88
2021/03/23 08:36:06;;;;;;;6.30;5.70;;;9.70;62.00;;;;;;5012581;28;20093;-85
2021/03/23 08:38:56;;;;;;;5.85;5.22;;;9.80;62.30;;;;;;5032327;28;20045;-89
2021/03/23 08:41:32;;;;;;;7.72;6.10;;;9.80;62.20;;;;;;5032530;28;20057;-88
2021/03/23 08:43:58;;;;;;;9.05;6.32;;;9.90;62.30;;;;;;5032017;28;20022;-88
2021/03/23 08:46:33;;;;;;;7.40;6.60;;;10.00;62.50;;;;;;5031667;28;20045;-86
2021/03/23 08:49:13;;;;;;;6.75;6.05;;;10.10;62.60;;;;;;5030989;28;20065;-86
2021/03/23 08:51:44;;;;;;;7.45;6.65;;;10.10;62.50;;;;;;5031182;28;20034;-86
2021/03/23 08:54:10;;;;;;;6.70;6.10;;;10.20;62.60;;;;;;5013597;28;20030;-88
2021/03/23 08:56:43;;;;;;;6.65;6.05;;;10.30;62.60;;;;;;5009206;28;20038;-87
2021/03/23 08:59:33;;;;;;;7.00;6.30;;;10.40;62.70;;;;;;5010170;28;20501;-85
2021/03/23 09:02:28;;;;;;;7.57;6.22;;;10.50;62.70;;;;;;4992569;28;20072;-89
2021/03/23 09:04:58;;;;;;;7.25;6.57;;;10.60;62.90;;;;;;4992095;28;20038;-89
2021/03/23 09:07:34;;;;;;;7.15;6.22;;;10.70;62.80;;;;;;4992299;28;20121;-88
2021/03/23 09:10:57;;;;;;;7.10;6.05;;;10.80;63.00;;;;;;5008336;28;20026;-87
2021/03/23 09:13:35;;;;;;;6.78;6.03;;;10.90;63.10;;;;;;4930027;29;20419;-89
2021/03/23 09:16:17;;;;;;;6.88;6.28;;;11.00;63.00;;;;;;4981225;28;20465;-89
2021/03/23 09:19:10;;;;;;;7.03;6.30;;;11.10;63.10;;;;;;4999455;28;20032;-89
2021/03/23 09:21:52;;;;;;;6.47;5.90;;;11.20;63.20;;;;;;5008351;28;20054;-87
2021/03/23 09:24:34;;;;;;;6.85;6.25;;;11.30;63.20;;;;;;5007724;28;20045;-89
2021/03/23 09:27:02;;;;;;;6.88;6.18;;;11.40;63.20;;;;;;5009626;28;20945;-89
2021/03/23 09:29:31;;;;;;;7.78;7.03;;;11.50;63.20;;;;;;5009136;28;20030;-86
2021/03/23 09:32:02;;;;;;;6.88;6.28;;;11.60;63.30;;;;;;5007754;28;20083;-88
2021/03/23 09:35:14;;;;;;;7.07;6.38;;;11.70;63.30;;;;;;5009817;28;20409;-88
2021/03/23 09:37:58;;;;;;;6.50;5.90;;;11.80;63.40;;;;;;5008246;28;20556;-90
2021/03/23 09:40:33;;;;;;;;;;;11.90;63.30;;;;;;4992504;28;20393;-90
2021/03/23 09:43:29;;;;;;;7.45;6.15;;;12.00;63.30;;;;;;4992546;28;19913;-86
2021/03/23 09:46:00;;;;;;;7.07;6.38;;;12.20;63.50;;;;;;4991304;28;20116;-88
2021/03/23 09:48:50;;;;;;;6.68;5.97;;;12.30;63.50;;;;;;4991228;28;20045;-90
2021/03/23 09:51:50;;;;;;;7.55;6.82;;;12.40;63.60;;;;;;4991254;28;20034;-90
2021/03/23 09:54:21;;;;;;;7.28;6.28;;;12.40;63.90;;;;;;4986334;28;20125;-88
2021/03/23 09:56:49;;;;;;;7.57;6.55;;;12.60;63.60;;;;;;4987039;28;20406;-89
2021/03/23 09:59:20;;;;;;;7.40;6.47;;;12.60;63.50;;;;;;4995937;23;20186;-64
2021/03/23 10:01:54;;;;;;;10.63;6.88;;;12.70;63.60;;;;;;5025680;28;20030;-64
2021/03/23 10:04:47;;;;;;;6.43;5.78;;;12.90;63.80;;;;;;5025762;28;20021;-63
2021/03/23 10:07:38;;;;;;;7.28;6.03;;;13.00;63.80;;;;;;5023874;28;20407;-63
2021/03/23 10:10:31;;;;;;;7.20;6.43;;;13.10;63.80;;;;;;5026055;28;20344;-64
2021/03/23 10:13:19;;;;;;;8.20;6.85;;;13.20;63.80;;;;;;5024676;28;20034;-64
2021/03/23 10:15:46;;;;;;;7.78;7.03;;;13.40;63.90;;;;;;5025893;28;20963;-65
2021/03/23 10:18:17;;;;;;;7.75;6.90;;;13.60;64.00;;;;;;5026182;28;20036;-64
2021/03/23 10:20:45;;;;;;;8.30;7.50;;;13.80;64.20;;;;;;5025908;28;20479;-64
2021/03/23 10:23:12;;;;;;;8.43;7.63;;;13.90;64.10;;;;;;5025892;28;20033;-64
2021/03/23 10:25:42;;;;;;;8.07;7.25;;;14.00;64.00;;;;;;5026297;28;20043;-64
2021/03/23 10:28:08;;;;;;;7.65;6.97;;;14.20;64.10;;;;;;5026070;28;20121;-65
2021/03/23 10:30:37;;;;;;;8.48;7.25;;;14.30;64.00;;;;;;5025648;28;20060;-63
2021/03/23 10:33:20;;;;;;;7.95;7.25;;;14.50;64.10;;;;;;5025244;28;20029;-64
2021/03/23 10:35:46;;;;;;;8.57;7.75;;;14.60;64.00;;;;;;5025746;28;20065;-65
2021/03/23 10:38:14;;;;;;;8.02;7.18;;;14.70;64.00;;;;;;5024821;28;20069;-63
2021/03/23 10:40:41;;;;;;;7.78;7.05;;;14.80;64.00;;;;;;5026459;28;20030;-63
2021/03/23 10:43:12;;;;;;;8.60;7.70;;;15.00;64.20;;;;;;5024416;28;20490;-64
2021/03/23 10:45:43;;;;;;;11.02;7.53;;;15.00;64.00;;;;;;5024334;28;20038;-65
2021/03/23 10:48:17;;;;;;;7.68;6.88;;;15.20;64.10;;;;;;5025597;28;20029;-63
2021/03/23 10:50:46;;;;;;;7.95;7.15;;;15.30;64.10;;;;;;5025589;28;20079;-64
2021/03/23 10:53:14;;;;;;;8.45;7.65;;;15.50;64.20;;;;;;5025440;28;20494;-65
2021/03/23 10:55:46;;;;;;;8.93;8.02;;;15.60;64.10;;;;;;5025879;28;20061;-64
2021/03/23 10:58:24;;;;;;;7.97;7.28;;;15.80;64.20;;;;;;5024358;28;20033;-64
2021/03/23 11:01:10;;;;;;;11.00;7.65;;;15.90;64.10;;;;;;5025449;28;20447;-64
2021/03/23 11:03:40;;;;;;;16.42;11.35;;;16.00;63.90;;;;;;5025123;28;20033;-65
2021/03/23 11:06:08;;;;;;;10.80;9.77;;;16.00;63.30;;;;;;5025924;28;20040;-66
2021/03/23 11:08:34;;;;;;;11.93;10.00;;;15.90;62.90;;;;;;5025263;28;20040;-65
2021/03/23 11:11:00;;;;;;;11.10;8.85;;;16.00;63.10;;;;;;5025511;28;20037;-66
2021/03/23 11:13:26;;;;;;;16.50;9.82;;;16.10;63.30;;;;;;5025806;28;20036;-65
2021/03/23 11:15:56;;;;;;;11.40;9.95;;;16.20;63.30;;;;;;5025584;28;20677;-65
2021/03/23 11:18:30;;;;;;;10.18;9.07;;;16.40;63.40;;;;;;5025195;28;20030;-64
2021/03/23 11:20:59;;;;;;;11.18;9.50;;;16.60;63.40;;;;;;5015491;28;20114;-67
2021/03/23 11:23:52;;;;;;;9.60;8.60;;;16.70;63.40;;;;;;5017246;28;20076;-65
2021/03/23 11:26:20;;;;;;;14.00;9.98;;;16.90;63.50;;;;;;5025369;28;20057;-64
2021/03/23 11:28:47;;;;;;;12.50;11.30;;;17.00;63.40;;;;;;5024959;28;20493;-64
2021/03/23 11:31:16;;;;;;;14.10;10.93;;;17.10;63.20;;;;;;5025438;28;20048;-65
2021/03/23 11:33:43;;;;;;;13.77;11.10;;;17.10;62.90;;;;;;5025131;28;20026;-64
2021/03/23 11:36:11;;;;;;;11.70;10.50;;;17.20;62.70;;;;;;5024670;28;20646;-64
2021/03/23 11:38:38;;;;;;;12.85;11.07;;;17.30;62.70;;;;;;5024854;28;20030;-66
2021/03/23 11:41:08;;;;;;;12.70;11.32;;;17.30;62.60;;;;;;5025451;28;20502;-64
2021/03/23 11:43:53;;;;;;;14.57;11.90;;;17.30;62.30;;;;;;5025112;28;20439;-64
2021/03/23 11:46:26;;;;;;;13.77;11.98;;;17.30;62.00;;;;;;5025019;28;20392;-66
2021/03/23 11:49:07;;;;;;;13.50;11.82;;;17.40;62.00;;;;;;5024692;28;20049;-66
2021/03/23 11:51:39;;;;;;;15.68;13.68;;;17.50;62.10;;;;;;5025594;28;20030;-65
2021/03/23 11:54:06;;;;;;;15.90;13.82;;;17.40;61.80;;;;;;5026065;28;20021;-65
2021/03/23 11:56:32;;;;;;;15.73;13.27;;;17.40;61.80;;;;;;5028781;28;20128;-65
2021/03/23 11:58:58;;;;;;;15.80;14.07;;;17.50;62.00;;;;;;5026718;28;20126;-66
2021/03/23 12:01:25;;;;;;;15.98;14.15;;;17.60;62.20;;;;;;5027348;28;20044;-66
2021/03/23 12:03:52;;;;;;;14.48;13.00;;;17.70;62.40;;;;;;5026973;28;20365;-64
2021/03/23 12:06:27;;;;;;;17.00;13.80;;;17.80;62.40;;;;;;5027105;28;20046;-66
2021/03/23 12:08:59;;;;;;;15.60;13.90;;;17.90;62.40;;;;;;5027513;28;20025;-64
2021/03/23 12:11:39;;;;;;;14.98;13.30;;;18.10;62.50;;;;;;5027309;28;20509;-65
2021/03/23 12:14:31;;;;;;;15.25;13.63;;;18.10;62.30;;;;;;5026866;28;20112;-64
2021/03/23 12:17:08;;;;;;;16.98;13.15;;;18.30;62.50;;;;;;5023887;28;20033;-67
2021/03/23 12:19:53;;;;;;;14.88;12.70;;;18.40;62.50;;;;;;5023876;28;20048;-65
2021/03/23 12:22:19;;;;;;;13.18;11.77;;;18.50;62.30;;;;;;5021712;28;20096;-64
2021/03/23 12:24:48;;;;;;;15.60;13.93;;;18.50;62.30;;;;;;5027605;28;20040;-65
2021/03/23 12:27:15;;;;;;;13.95;12.65;;;18.60;62.30;;;;;;5026984;28;20099;-66
2021/03/23 12:29:41;;;;;;;13.45;12.20;;;18.60;62.20;;;;;;5019239;28;20116;-66
2021/03/23 12:32:12;;;;;;;13.23;12.02;;;18.60;62.00;;;;;;5007376;28;20057;-65
2021/03/23 12:34:39;;;;;;;13.20;11.80;;;18.70;62.00;;;;;;5026985;28;20087;-65
2021/03/23 12:37:05;;;;;;;13.27;11.95;;;18.70;61.90;;;;;;5026982;28;20039;-65
2021/03/23 12:39:31;;;;;;;13.80;11.93;;;18.70;61.80;;;;;;5025085;28;20059;-64
2021/03/23 12:41:57;;;;;;;16.67;12.85;;;18.70;61.80;;;;;;5026413;28;20494;-65
2021/03/23 12:44:23;;;;;;;12.35;11.05;;;18.80;61.70;;;;;;5026010;28;20104;-64
2021/03/23 12:46:49;;;;;;;14.38;12.45;;;18.80;61.60;;;;;;5024630;28;20052;-66
2021/03/23 12:49:16;;;;;;;13.02;11.68;;;18.80;61.50;;;;;;5026678;28;20029;-65
2021/03/23 12:51:48;;;;;;;13.05;11.75;;;18.90;61.60;;;;;;5026930;28;20044;-65
2021/03/23 12:54:23;;;;;;;12.95;11.63;;;19.00;61.70;;;;;;5025505;28;20053;-65
2021/03/23 12:56:49;;;;;;;12.68;11.35;;;19.10;61.60;;;;;;5026201;28;20502;-64
2021/03/23 12:59:27;;;;;;;12.02;10.82;;;19.10;61.60;;;;;;4998479;28;781509;-64
2021/03/23 13:01:54;;;;;;;12.18;10.75;;;19.20;61.40;;;;;;5027371;28;20033;-64
2021/03/23 13:04:22;;;;;;;11.98;10.82;;;19.20;61.40;;;;;;5027272;28;20476;-64
2021/03/23 13:06:48;;;;;;;12.38;11.02;;;19.20;61.20;;;;;;5026071;28;20037;-65
2021/03/23 13:09:14;;;;;;;11.88;10.10;;;19.30;61.20;;;;;;5027309;28;20025;-65
2021/03/23 13:11:46;;;;;;;12.40;11.10;;;19.40;61.20;;;;;;5027169;28;20025;-65
2021/03/23 13:14:27;;;;;;;12.23;10.93;;;19.40;60.90;;;;;;5027026;28;20057;-66
2021/03/23 13:16:54;;;;;;;12.68;10.80;;;19.50;60.80;;;;;;5026330;28;20565;-65
2021/03/23 13:19:21;;;;;;;11.15;10.05;;;19.60;60.90;;;;;;5026973;28;20067;-64
2021/03/23 13:21:57;;;;;;;11.68;10.48;;;19.60;60.70;;;;;;5027020;28;20061;-62
2021/03/23 13:24:49;;;;;;;11.50;10.18;;;19.60;60.50;;;;;;5026653;28;20029;-64
2021/03/23 13:27:24;;;;;;;11.45;9.95;;;19.60;60.30;;;;;;5026673;28;20033;-65
2021/03/23 13:29:53;;;;;;;10.88;9.38;;;19.60;60.30;;;;;;5026501;28;20029;-64
2021/03/23 13:32:19;;;;;;;11.20;10.10;;;19.70;60.50;;;;;;5026823;28;20041;-64